Portada
METAR-TAF:

METAR-TAF

Aeropuertos :

El Cairo, Egipto

Aeropuerto Internacional de El Cairo

latitud: 30-08N, longitud: 031-24E, altitud: 64 m

Observación

El informe se hizo hace 34 minutos, a las 06:30 UTC
Viento 6 kt del noroeste
Temperatura 26°C
Humedad 70%
Presión 1013 hPa
Visibilidad: 3000 m
Nubes dispersas a una altura de 2500 ft
neblina

METAR: HECA 240630Z 31006KT 3000 BR SCT025 26/20 Q1013 NOSIG

Hora: 09:04 (07:04 UTC)

Pronóstico

El informe se hizo hace 14 horas y 4 minutos, a las 17:00 UTC
Pronóstico válido del 23 a las 18 UTC al 24 a las 24 UTC
Viento 12 kt del norte-noroeste
Visibilidad 10 km o más
sin nubes por debajo de 1500 m y sin presencia de cumulonimbus.
Temporalmente
del 24 a las 02 UTC al 24 a las 06 UTC
Viento 3 kt con dirección variable

TAF: HECA 231700Z 2318/2424 34012KT CAVOK TEMPO 2402/2406 VRB03KT 4000BR NSC

Observaciones y pronósticos meteorológicos de más de 4000 aeropuertos (mensajes METAR y TAF).

Los puntos amarillos y rojos representan las estaciones disponibles.

Ponga el ratón en el punto deseado para ver el nombre de la estación.

Haga clic para ver las observaciones y los pronósticos meteorológicos.

Para cambiar el mapa : haga clic en los botones verdes con una cruz de color negro para hacer un zoom, en el botón verde con un guión para alejar o en las flechas verdes para mapas adyacentes.


METAR-TAF: